Time;durP1;ratioP1;P1;durP2;ratioP2;P2;SDS_P1;SDS_P2;PMS_P1;PMS_P2;Temp;Humidity;BMP_temperature;BMP_pressure;BME280_temperature;BME280_humidity;BME280_pressure;Samples;Min_cycle;Max_cycle;Signal;HPM_P1;HPM_P2
2021/04/30 00:00:09;;;;;;;1999.90;999.90;;;;;;;7.90;100.00;640.94;4939665;29;20619;-37
2021/04/30 00:02:55;;;;;;;1999.90;999.90;;;;;;;8.08;100.00;2315.09;4939334;29;20196;-37
2021/04/30 00:05:40;;;;;;;1999.90;999.90;;;;;;;8.12;100.00;3124.75;4939518;29;20208;-35
2021/04/30 00:08:26;;;;;;;1999.90;999.90;;;;;;;8.35;100.00;2198.84;4939533;29;20304;-37
2021/04/30 00:11:13;;;;;;;1999.90;999.90;;;;;;;8.39;100.00;-1143.59;4939358;29;20272;-32
2021/04/30 00:14:01;;;;;;;1999.90;999.90;;;;;;;7.75;100.00;-3465.13;4939608;29;20212;-36
2021/04/30 00:16:48;;;;;;;1999.90;999.90;;;;;;;8.28;100.00;1429.19;4939563;29;20204;-36
2021/04/30 00:19:34;;;;;;;1999.90;999.90;;;;;;;8.08;100.00;-2216.03;4939302;29;20619;-33
2021/04/30 00:22:20;;;;;;;1999.90;999.90;;;;;;;7.85;100.00;-376.19;4939600;29;20196;-38
2021/04/30 00:25:10;;;;;;;1999.90;999.90;;;;;;;8.03;100.00;2387.63;4939495;29;20216;-32
2021/04/30 00:27:56;;;;;;;1999.90;999.90;;;;;;;8.21;100.00;2240.63;4939231;29;20248;-33
2021/04/30 00:30:42;;;;;;;1999.90;999.90;;;;;;;8.16;100.00;-732.03;4938983;29;20204;-37
2021/04/30 00:33:29;;;;;;;1999.90;999.90;;;;;;;8.11;100.00;-2047.88;4939190;29;20236;-35
2021/04/30 00:36:16;;;;;;;1999.90;999.90;;;;;;;8.36;100.00;-3903.47;4939180;29;20496;-34
2021/04/30 00:39:03;;;;;;;1999.90;999.90;;;;;;;8.17;100.00;-3586.63;4939339;29;20495;-36
2021/04/30 00:41:49;;;;;;;1999.90;999.90;;;;;;;8.30;100.00;-289.59;4939008;29;20268;-35
2021/04/30 00:44:35;;;;;;;1999.90;999.90;;;;;;;8.19;100.00;-2838.69;4939199;29;20204;-35
2021/04/30 00:47:27;;;;;;;1999.90;999.90;;;;;;;8.39;100.00;856.66;4939239;29;20313;-33
2021/04/30 00:50:13;;;;;;;1999.90;999.90;;;;;;;8.46;100.00;-560.56;4938757;29;20203;-33
2021/04/30 00:52:59;;;;;;;1999.90;999.90;;;;;;;8.20;100.00;272.88;4939145;29;20227;-33
2021/04/30 00:55:46;;;;;;;1999.90;999.90;;;;;;;7.99;100.00;3963.22;4939478;29;20249;-36
2021/04/30 00:58:32;;;;;;;1999.90;999.90;;;;;;;7.99;100.00;6810.06;4942861;29;20327;-32
2021/04/30 01:01:19;;;;;;;1999.90;999.90;;;;;;;8.11;100.00;8374.72;4942747;29;20208;-33
2021/04/30 01:04:08;;;;;;;1999.90;999.90;;;;;;;8.11;100.00;7267.28;4942564;29;20197;-33
2021/04/30 01:06:53;;;;;;;1999.90;999.90;;;;;;;8.46;100.00;7141.63;4942673;29;20204;-33
2021/04/30 01:09:39;;;;;;;1999.90;999.90;;;;;;;8.29;100.00;7018.22;4942419;29;20211;-33
2021/04/30 01:12:25;;;;;;;1999.90;999.90;;;;;;;8.28;100.00;5918.28;4942143;29;20275;-35
2021/04/30 01:15:13;;;;;;;1999.90;999.90;;;;;;;8.32;100.00;5903.69;4942445;29;20505;-31
2021/04/30 01:18:01;;;;;;;1999.90;999.90;;;;;;;8.23;100.00;6999.72;4942543;29;20208;-33
2021/04/30 01:20:50;;;;;;;1999.90;999.90;;;;;;;8.37;100.00;7188.03;4942185;29;20617;-35
2021/04/30 01:23:46;;;;;;;1999.90;999.90;;;;;;;8.36;100.00;5707.88;4942421;29;20204;-33
2021/04/30 01:26:31;;;;;;;1999.90;999.90;;;;;;;8.36;100.00;3089.06;4941959;29;20208;-32
2021/04/30 01:29:17;;;;;;;1999.90;999.90;;;;;;;7.91;100.00;6441.72;4942144;29;20208;-37
2021/04/30 01:32:06;;;;;;;1999.90;999.90;;;;;;;8.10;100.00;9963.25;4942198;29;20275;-33
2021/04/30 01:34:53;;;;;;;1999.90;999.90;;;;;;;8.29;100.00;10725.22;4941895;29;20335;-35
2021/04/30 01:37:39;;;;;;;1999.90;999.90;;;;;;;8.42;100.00;8319.50;4941822;29;20204;-32
2021/04/30 01:40:31;;;;;;;1999.90;999.90;;;;;;;8.37;100.00;9618.34;4941726;29;20268;-36
2021/04/30 01:43:18;;;;;;;1999.90;999.90;;;;;;;8.35;100.00;6447.72;4940636;29;20200;-33
2021/04/30 01:46:06;;;;;;;1999.90;999.90;;;;;;;8.18;100.00;4407.69;4941373;29;20214;-34
2021/04/30 01:48:53;;;;;;;1999.90;999.90;;;;;;;8.18;100.00;5632.75;4941498;29;20356;-32
2021/04/30 01:51:38;;;;;;;1999.90;999.90;;;;;;;8.45;100.00;6731.09;4940963;29;20628;-31
2021/04/30 01:54:24;;;;;;;1999.90;999.90;;;;;;;8.14;100.00;7353.22;4940561;29;20241;-31
2021/04/30 01:57:10;;;;;;;1999.90;999.90;;;;;;;8.52;100.00;9573.25;4941471;29;20224;-32
2021/04/30 01:59:56;;;;;;;1999.90;999.90;;;;;;;8.40;100.00;6382.97;4941260;29;20337;-33
2021/04/30 02:02:46;;;;;;;1999.90;999.90;;;;;;;8.50;100.00;8086.56;4941361;29;20224;-33
2021/04/30 02:05:34;;;;;;;1999.90;999.90;;;;;;;8.42;100.00;5049.28;4941555;29;20288;-33
2021/04/30 02:08:21;;;;;;;1999.90;999.90;;;;;;;7.99;100.00;10829.72;4941355;29;20208;-32
2021/04/30 02:11:07;;;;;;;1999.90;999.90;;;;;;;7.90;100.00;12397.06;4941444;29;20200;-34
2021/04/30 02:13:53;;;;;;;1999.90;999.90;;;;;;;7.91;100.00;17529.38;4941245;29;20232;-36
2021/04/30 02:16:42;;;;;;;1999.90;999.90;;;;;;;8.04;100.00;24202.38;4941599;29;20204;-33
2021/04/30 02:19:28;;;;;;;1999.90;999.90;;;;;;;7.89;100.00;22546.31;4940923;29;20262;-31
2021/04/30 02:22:14;;;;;;;1999.90;999.90;;;;;;;8.18;100.00;26355.22;4940923;29;20347;-37
2021/04/30 02:25:00;;;;;;;1999.90;999.90;;;;;;;8.11;100.00;23899.59;4941213;29;20204;-32
2021/04/30 02:27:47;;;;;;;1999.90;999.90;;;;;;;8.08;100.00;25606.88;4941382;29;20209;-33
2021/04/30 02:30:36;;;;;;;1999.90;999.90;;;;;;;8.10;100.00;26247.53;4940980;29;20220;-34
2021/04/30 02:33:24;;;;;;;1999.90;999.90;;;;;;;8.13;100.00;24681.31;4941138;29;20232;-36
2021/04/30 02:36:10;;;;;;;1999.90;999.90;;;;;;;7.93;100.00;21522.63;4941177;29;20212;-35
2021/04/30 02:38:58;;;;;;;1999.90;999.90;;;;;;;8.13;100.00;23432.72;4940844;29;20208;-33
2021/04/30 02:41:44;;;;;;;1999.90;999.90;;;;;;;8.15;100.00;23891.00;4940053;29;20200;-32
2021/04/30 02:44:30;;;;;;;1999.90;999.90;;;;;;;8.04;100.00;23747.28;4940516;29;20292;-32
2021/04/30 02:47:17;;;;;;;1999.90;999.90;;;;;;;8.15;100.00;27294.50;4940574;29;20448;-32
2021/04/30 02:50:04;;;;;;;1999.90;999.90;;;;;;;8.11;100.00;29190.16;4940565;29;20356;-34
2021/04/30 02:52:51;;;;;;;1999.90;999.90;;;;;;;8.36;100.00;31082.22;4940388;29;20237;-35
2021/04/30 02:55:36;;;;;;;1999.90;999.90;;;;;;;8.41;100.00;30114.59;4940538;29;20347;-33
2021/04/30 02:58:23;;;;;;;1999.90;999.90;;;;;;;8.50;100.00;25907.03;4940703;29;20264;-33
2021/04/30 03:01:09;;;;;;;1999.90;999.90;;;;;;;8.70;100.00;22776.03;4940380;29;20208;-37
2021/04/30 03:03:57;;;;;;;1999.90;999.90;;;;;;;8.86;100.00;17895.91;4940073;29;20201;-37
2021/04/30 03:06:43;;;;;;;1999.90;999.90;;;;;;;8.70;100.00;10471.56;4940325;29;20295;-34
2021/04/30 03:09:28;;;;;;;1999.90;999.90;;;;;;;8.55;100.00;7417.50;4939379;29;20216;-35
2021/04/30 03:12:14;;;;;;;1999.90;999.90;;;;;;;8.27;100.00;7669.91;4939601;29;20289;-35
2021/04/30 03:15:00;;;;;;;1999.90;999.90;;;;;;;8.51;100.00;13904.44;4940234;29;20205;-35
2021/04/30 03:17:48;;;;;;;1999.90;999.90;;;;;;;8.24;100.00;11820.34;4940068;29;20199;-33
2021/04/30 03:20:35;;;;;;;1999.90;999.90;;;;;;;8.43;100.00;17551.13;4940036;29;20201;-35
2021/04/30 03:23:21;;;;;;;1999.90;999.90;;;;;;;8.32;100.00;17847.94;4939558;29;20260;-36
2021/04/30 03:26:09;;;;;;;1999.90;999.90;;;;;;;8.60;100.00;17240.84;4939861;29;20273;-36
2021/04/30 03:28:54;;;;;;;1999.90;999.90;;;;;;;8.02;100.00;15003.19;4939993;29;20208;-32
2021/04/30 03:31:40;;;;;;;1999.90;999.90;;;;;;;8.23;100.00;21531.63;4940324;29;20299;-33
2021/04/30 03:34:26;;;;;;;1999.90;999.90;;;;;;;8.40;100.00;23684.31;4940100;29;20188;-34
2021/04/30 03:37:13;;;;;;;1999.90;999.90;;;;;;;8.55;100.00;21387.25;4939819;29;20203;-38
2021/04/30 03:39:59;;;;;;;1999.90;999.90;;;;;;;8.60;100.00;16130.13;4939141;29;20247;-36
2021/04/30 03:42:45;;;;;;;1999.90;999.90;;;;;;;8.04;100.00;13428.41;4940095;29;20200;-35
2021/04/30 03:45:31;;;;;;;1999.90;999.90;;;;;;;8.31;100.00;19817.03;4939512;29;20213;-34
2021/04/30 03:48:17;;;;;;;1999.90;999.90;;;;;;;8.43;100.00;19621.66;4939445;29;20208;-34
2021/04/30 03:51:03;;;;;;;1999.90;999.90;;;;;;;8.73;100.00;17282.72;4939494;29;20204;-32
2021/04/30 03:53:50;;;;;;;1999.90;999.90;;;;;;;8.86;100.00;10525.22;4938931;29;20240;-35
2021/04/30 03:56:36;;;;;;;1999.90;999.90;;;;;;;8.77;100.00;4355.97;4939892;29;20212;-36
2021/04/30 03:59:22;;;;;;;1999.90;999.90;;;;;;;8.87;100.00;4963.88;4939782;29;20221;-35
2021/04/30 04:02:07;;;;;;;1999.90;999.90;;;;;;;8.77;100.00;1665.81;4939073;29;20216;-33
2021/04/30 04:04:55;;;;;;;1999.90;999.90;;;;;;;8.55;100.00;1724.91;4939461;29;20265;-34
2021/04/30 04:07:41;;;;;;;1999.90;999.90;;;;;;;9.03;100.00;4318.31;4939426;29;20219;-34
2021/04/30 04:10:27;;;;;;;1999.90;999.90;;;;;;;9.32;100.00;-1434.19;4938990;29;20200;-33
2021/04/30 04:13:17;;;;;;;1999.90;999.90;;;;;;;9.35;100.00;-4897.13;4938157;29;20231;-35
2021/04/30 04:16:05;;;;;;;1999.90;999.90;;;;;;;9.50;100.00;-7041.97;4939512;29;20209;-33
2021/04/30 04:18:52;;;;;;;1999.90;999.90;;;;;;;9.14;100.00;-12703.19;4939231;29;20242;-37
2021/04/30 04:21:40;;;;;;;1999.90;999.90;;;;;;;9.41;100.00;-13901.94;4939352;29;20304;-33
2021/04/30 04:24:26;;;;;;;1999.90;999.90;;;;;;;9.45;100.00;-14188.66;4938896;29;20286;-35
2021/04/30 04:27:13;;;;;;;1999.90;999.90;;;;;;;9.42;100.00;-15875.38;4938708;29;20202;-36
2021/04/30 04:29:59;;;;;;;1999.90;999.90;;;;;;;9.56;100.00;-16703.44;4938969;29;20558;-37
2021/04/30 04:32:45;;;;;;;1999.90;999.90;;;;;;;9.39;100.00;-16734.38;4942930;29;20506;-33
2021/04/30 04:35:31;;;;;;;1999.90;999.90;;;;;;;9.52;100.00;-15591.84;4942861;29;20510;-35
2021/04/30 04:38:17;;;;;;;1999.90;999.90;;;;;;;9.57;100.00;-15939.00;4942549;29;20484;-35
2021/04/30 04:41:03;;;;;;;1999.90;999.90;;;;;;;9.83;100.00;-17878.53;4942960;29;20283;-35
2021/04/30 04:43:49;;;;;;;1999.90;999.90;;;;;;;9.81;100.00;-18170.72;4942663;29;20228;-36
2021/04/30 04:46:36;;;;;;;1999.90;999.90;;;;;;;9.94;100.00;-18174.19;4942974;29;20340;-34
2021/04/30 04:49:22;;;;;;;1999.90;999.90;;;;;;;9.49;100.00;-18162.28;4941882;29;20228;-33
2021/04/30 04:52:13;;;;;;;1999.90;999.90;;;;;;;9.33;100.00;-18158.00;4942176;29;20344;-33
2021/04/30 04:55:01;;;;;;;1999.90;999.90;;;;;;;9.13;100.00;-16593.00;4942633;29;20244;-35
2021/04/30 04:57:47;;;;;;;1999.90;999.90;;;;;;;9.03;100.00;-15047.34;4942847;29;20300;-37
2021/04/30 05:00:33;;;;;;;1999.90;999.90;;;;;;;9.54;100.00;-12261.00;4942528;29;20499;-34
2021/04/30 05:03:18;;;;;;;1999.90;999.90;;;;;;;9.68;100.00;-15653.25;4942093;29;20205;-33
2021/04/30 05:06:05;;;;;;;1999.90;999.90;;;;;;;9.42;100.00;-17088.47;4941845;29;20220;-34
2021/04/30 05:08:50;;;;;;;1999.90;999.90;;;;;;;9.79;100.00;-17320.88;4942150;29;20618;-32
2021/04/30 05:11:38;;;;;;;1999.90;999.90;;;;;;;9.98;100.00;-18175.13;4941618;29;20491;-34
2021/04/30 05:14:25;;;;;;;1999.90;999.90;;;;;;;10.11;100.00;-18178.47;4942091;29;20371;-36
2021/04/30 05:17:28;;;;;;;1999.90;999.90;;;;;;;9.86;100.00;-18172.03;4941666;29;20360;-35
2021/04/30 05:20:15;;;;;;;1999.90;999.90;;;;;;;10.09;100.00;-18178.06;4942093;29;20200;-33
2021/04/30 05:23:01;;;;;;;1999.90;999.90;;;;;;;9.32;100.00;-18157.88;4941590;29;20199;-36
2021/04/30 05:25:49;;;;;;;1999.90;999.90;;;;;;;9.89;100.00;-18172.84;4941680;29;20209;-34
2021/04/30 05:28:39;;;;;;;1999.90;999.90;;;;;;;10.15;100.00;-18179.53;4940874;29;20213;-35
2021/04/30 05:31:24;;;;;;;1999.90;999.90;;;;;;;10.31;100.00;-18183.81;4940996;29;20347;-36
2021/04/30 05:34:11;;;;;;;1999.90;999.90;;;;;;;10.49;100.00;-18188.50;4941457;29;20224;-33
2021/04/30 05:36:57;;;;;;;1999.90;999.90;;;;;;;10.16;100.00;-18179.94;4941316;29;20288;-38
2021/04/30 05:39:43;;;;;;;1999.90;999.90;;;;;;;10.26;100.00;-18182.50;4941467;29;20257;-34
2021/04/30 05:42:29;;;;;;;1999.90;999.90;;;;;;;10.31;100.00;-18183.97;4941411;29;20208;-33
2021/04/30 05:45:15;;;;;;;1999.90;999.90;;;;;;;10.25;100.00;-18182.22;4941334;29;20490;-38
2021/04/30 05:48:01;;;;;;;1999.90;999.90;;;;;;;10.59;100.00;-18191.19;4941373;29;20559;-33
2021/04/30 05:50:47;;;;;;;1999.90;999.90;;;;;;;10.71;100.00;-18194.38;4940971;29;20447;-36
2021/04/30 05:53:33;;;;;;;1999.90;999.90;;;;;;;10.02;100.00;-18176.31;4940913;29;20369;-36
2021/04/30 05:56:18;;;;;;;1999.90;999.90;;;;;;;9.63;100.00;-18165.91;4940814;29;20271;-34
2021/04/30 05:59:07;;;;;;;1999.90;999.90;;;;;;;9.51;100.00;-18162.81;4941592;29;20206;-36
2021/04/30 06:01:53;;;;;;;1999.90;999.90;;;;;;;9.13;100.00;-18152.78;4940896;29;20281;-38
2021/04/30 06:04:39;;;;;;;1999.90;999.90;;;;;;;9.11;100.00;-18152.25;4941349;29;20202;-36
2021/04/30 06:07:26;;;;;;;1999.90;999.90;;;;;;;9.64;100.00;-17836.09;4940960;29;20196;-35
2021/04/30 06:10:12;;;;;;;1999.90;999.90;;;;;;;9.88;100.00;-18172.59;4941433;29;20209;-36
2021/04/30 06:13:06;;;;;;;1999.90;999.90;;;;;;;9.19;100.00;-18154.38;4940892;29;20334;-36
2021/04/30 06:15:51;;;;;;;1999.90;999.90;;;;;;;9.34;100.00;-18158.28;4941173;29;20204;-37
2021/04/30 06:18:37;;;;;;;1999.90;999.90;;;;;;;9.42;100.00;-18160.28;4940513;29;20204;-33
2021/04/30 06:21:25;;;;;;;1999.90;999.90;;;;;;;9.46;100.00;-18161.34;4940608;29;20307;-33
2021/04/30 06:24:12;;;;;;;1999.90;999.90;;;;;;;9.79;100.00;-18170.03;4940691;29;20264;-36
2021/04/30 06:26:58;;;;;;;1999.90;999.90;;;;;;;10.21;100.00;-18181.28;4940803;29;20499;-35
2021/04/30 06:29:43;;;;;;;1999.90;999.90;;;;;;;10.05;100.00;-18177.00;4940866;29;20204;-35
2021/04/30 06:32:34;;;;;;;1999.90;999.90;;;;;;;10.45;100.00;-18187.56;4940747;29;20705;-34
2021/04/30 06:35:20;;;;;;;1999.90;999.90;;;;;;;10.58;100.00;-18191.03;4940292;29;20211;-34
2021/04/30 06:38:06;;;;;;;1999.90;999.90;;;;;;;9.73;100.00;-18168.44;4940425;29;20274;-35
2021/04/30 06:40:52;;;;;;;1999.90;999.90;;;;;;;9.72;100.00;-18168.16;4947649;29;20231;-37
2021/04/30 06:43:45;;;;;;;1999.90;999.90;;;;;;;9.98;100.00;-18175.13;4939726;29;20200;-37
2021/04/30 06:46:39;;;;;;;1999.90;999.90;;;;;;;9.33;100.00;-18158.00;4940271;29;20493;-35
2021/04/30 06:49:27;;;;;;;1999.90;999.90;;;;;;;9.92;100.00;-18173.53;4940360;29;20753;-35
2021/04/30 06:52:16;;;;;;;1999.90;999.90;;;;;;;9.86;100.00;-18172.03;4940352;29;20205;-34
2021/04/30 06:55:02;;;;;;;1999.90;999.90;;;;;;;10.00;100.00;-18175.66;4939305;29;20235;-36
2021/04/30 06:58:00;;;;;;;1999.90;999.90;;;;;;;9.98;100.00;-18175.13;4939540;29;20465;-32
2021/04/30 07:00:46;;;;;;;1999.90;999.90;;;;;;;10.15;100.00;-18179.53;4939415;29;20305;-34
2021/04/30 07:03:32;;;;;;;1999.90;999.90;;;;;;;10.69;100.00;-18193.84;4939975;29;20200;-34
2021/04/30 07:06:19;;;;;;;1999.90;999.90;;;;;;;10.94;100.00;-18200.53;4940110;29;20201;-32
2021/04/30 07:09:06;;;;;;;1999.90;999.90;;;;;;;11.39;100.00;-18212.44;4940118;29;20527;-35
2021/04/30 07:11:51;;;;;;;1999.90;999.90;;;;;;;11.68;100.00;-18219.91;4939300;29;20466;-33
2021/04/30 07:14:38;;;;;;;1999.90;999.90;;;;;;;10.90;100.00;-18199.47;4939352;29;20236;-33
2021/04/30 07:17:29;;;;;;;1999.90;999.90;;;;;;;10.68;100.00;-18193.59;4939167;29;20600;-36
2021/04/30 07:20:15;;;;;;;1999.90;999.90;;;;;;;11.25;100.00;-18208.69;4938888;29;20587;-34
2021/04/30 07:23:01;;;;;;;1999.90;999.90;;;;;;;11.90;100.00;-18225.66;4939247;29;20652;-35
2021/04/30 07:25:48;;;;;;;1999.90;999.90;;;;;;;11.61;100.00;-18218.03;4938993;29;20201;-37
2021/04/30 07:28:37;;;;;;;1999.90;999.90;;;;;;;11.16;100.00;-18206.16;4950839;29;20300;-34
2021/04/30 07:31:25;;;;;;;1999.90;999.90;;;;;;;10.88;100.00;-18198.94;4939563;29;20205;-36
2021/04/30 07:34:15;;;;;;;1999.90;999.90;;;;;;;11.60;100.00;-18217.91;4954508;29;20231;-35
2021/04/30 07:37:00;;;;;;;1999.90;999.90;;;;;;;11.26;100.00;-18208.81;4958963;29;20200;-37
2021/04/30 07:39:48;;;;;;;1999.90;999.90;;;;;;;11.69;100.00;-18220.31;4958606;29;20295;-34
2021/04/30 07:42:36;;;;;;;1999.90;999.90;;;;;;;12.08;100.00;-18230.59;4958561;29;20199;-37
2021/04/30 07:45:22;;;;;;;1999.90;999.90;;;;;;;12.14;100.00;-18232.06;4958307;29;20216;-35
2021/04/30 07:48:12;;;;;;;1999.90;999.90;;;;;;;12.28;100.00;-18235.81;4957734;29;20207;-37
2021/04/30 07:51:02;;;;;;;1999.90;999.90;;;;;;;12.47;100.00;-18240.75;4956944;29;20200;-33
2021/04/30 07:53:51;;;;;;;1999.90;999.90;;;;;;;12.94;100.00;-18253.16;4958028;29;20252;-36
2021/04/30 07:56:37;;;;;;;1999.90;999.90;;;;;;;12.43;100.00;-18239.69;4957922;29;20208;-36
2021/04/30 07:59:25;;;;;;;1999.90;999.90;;;;;;;12.11;100.00;-18231.13;4957558;29;20611;-38
2021/04/30 08:02:11;;;;;;;1999.90;999.90;;;;;;;12.70;100.00;-18246.75;4957727;29;20204;-37
2021/04/30 08:05:01;;;;;;;1999.90;999.90;;;;;;;13.27;100.00;-18261.84;4958577;28;20195;-36
2021/04/30 08:07:46;;;;;;;1999.90;999.90;;;;;;;12.05;100.00;-18229.66;4958113;29;20630;-33
2021/04/30 08:10:33;;;;;;;1999.90;999.90;;;;;;;12.32;100.00;-18236.75;4958639;29;20659;-36
2021/04/30 08:13:23;;;;;;;1999.90;999.90;;;;;;;12.62;100.00;-18244.63;4958280;29;20499;-36
2021/04/30 08:16:09;;;;;;;1999.90;999.90;;;;;;;12.44;100.00;-18239.94;4957835;29;20201;-34
2021/04/30 08:18:55;;;;;;;1999.90;999.90;;;;;;;12.67;100.00;-18246.09;4957817;29;20218;-33
2021/04/30 08:21:44;;;;;;;1999.90;999.90;;;;;;;12.84;100.00;-18250.50;4958672;29;20329;-34
2021/04/30 08:24:30;;;;;;;1999.90;999.90;;;;;;;13.27;100.00;-18261.84;4957880;29;20200;-34
2021/04/30 08:27:16;;;;;;;1999.90;999.90;;;;;;;13.11;100.00;-18257.56;4957748;29;20201;-34
2021/04/30 08:30:05;;;;;;;1999.90;999.90;;;;;;;11.87;100.00;-18225.00;4957494;29;20551;-34
2021/04/30 08:32:51;;;;;;;1999.90;999.90;;;;;;;12.36;100.00;-18237.94;4958011;29;20618;-35
2021/04/30 08:35:37;;;;;;;1999.90;999.90;;;;;;;11.58;100.00;-18217.25;4957805;29;20217;-37
2021/04/30 08:38:24;;;;;;;1999.90;999.90;;;;;;;11.95;100.00;-18227.13;4957876;29;20594;-35
2021/04/30 08:41:10;;;;;;;1999.90;999.90;;;;;;;12.05;100.00;-18229.78;4958086;29;20610;-33
2021/04/30 08:43:55;;;;;;;1999.90;999.90;;;;;;;12.60;100.00;-18244.22;4957697;29;20335;-38
2021/04/30 08:46:43;;;;;;;1999.90;999.90;;;;;;;12.94;100.00;-18253.16;4957640;29;20345;-34
2021/04/30 08:49:31;;;;;;;1999.90;999.90;;;;;;;12.64;100.00;-18245.16;4957418;29;20199;-34
2021/04/30 08:52:20;;;;;;;1999.90;999.90;;;;;;;12.51;100.00;-18241.81;4958259;29;20671;-35
2021/04/30 08:55:11;;;;;;;1999.90;999.90;;;;;;;12.12;100.00;-18231.41;4956667;29;20307;-33
2021/04/30 08:57:59;;;;;;;1999.90;999.90;;;;;;;12.45;100.00;-18240.22;4957666;29;20303;-35
2021/04/30 09:00:48;;;;;;;1999.90;999.90;;;;;;;12.74;100.00;-18247.94;4957171;29;20663;-35
2021/04/30 09:03:34;;;;;;;1999.90;999.90;;;;;;;12.35;100.00;-18237.69;4957501;29;20492;-33
2021/04/30 09:06:32;;;;;;;1999.90;999.90;;;;;;;12.58;100.00;-18243.56;4956600;29;20203;-37
2021/04/30 09:09:27;;;;;;;1999.90;999.90;;;;;;;12.07;100.00;-18230.34;4957843;29;20204;-35
2021/04/30 09:12:18;;;;;;;1999.90;999.90;;;;;;;12.06;100.00;-18229.94;4957017;29;20224;-34
2021/04/30 09:15:07;;;;;;;1999.90;999.90;;;;;;;12.77;100.00;-18248.63;4957274;29;20642;-37
2021/04/30 09:17:52;;;;;;;1999.90;999.90;;;;;;;12.21;100.00;-18233.81;4959733;28;20356;-38
2021/04/30 09:20:38;;;;;;;1999.90;999.90;;;;;;;12.69;100.00;-18246.47;4960845;29;20199;-34
2021/04/30 09:23:33;;;;;;;1999.90;999.90;;;;;;;12.14;100.00;-18231.94;4959853;29;20284;-32
2021/04/30 09:26:24;;;;;;;1999.90;999.90;;;;;;;11.93;100.00;-18226.59;4960731;29;20402;-36
2021/04/30 09:29:13;;;;;;;1999.90;999.90;;;;;;;12.53;100.00;-18242.34;4944316;29;20231;-34
2021/04/30 09:32:01;;;;;;;1999.90;999.90;;;;;;;12.99;100.00;-18254.50;4941455;29;20308;-32
2021/04/30 09:34:55;;;;;;;1999.90;999.90;;;;;;;12.01;100.00;-18228.72;4941780;29;20345;-34
2021/04/30 09:37:41;;;;;;;1999.90;999.90;;;;;;;11.63;100.00;-18218.56;4941516;29;20276;-37
2021/04/30 09:40:31;;;;;;;1999.90;999.90;;;;;;;11.72;100.00;-18220.97;4940907;29;20204;-37
2021/04/30 09:43:19;;;;;;;1999.90;999.90;;;;;;;12.23;100.00;-18234.34;4941114;29;20201;-35
2021/04/30 09:46:29;;;;;;;1999.90;999.90;;;;;;;12.37;100.00;-18238.06;4941276;29;20600;-33
2021/04/30 09:49:16;;;;;;;1999.90;999.90;;;;;;;12.73;100.00;-18247.56;4941277;29;20329;-36
2021/04/30 09:52:04;;;;;;;1999.90;999.90;;;;;;;12.93;100.00;-18252.88;4940384;29;20316;-32
2021/04/30 09:55:02;;;;;;;1999.90;999.90;;;;;;;12.95;100.00;-18253.28;4940361;29;20655;-34
2021/04/30 09:57:50;;;;;;;1999.90;999.90;;;;;;;13.54;100.00;-18268.91;4940711;29;20560;-35
2021/04/30 10:00:36;;;;;;;1999.90;999.90;;;;;;;12.69;100.00;-18246.47;4940880;29;20485;-36
2021/04/30 10:03:40;;;;;;;1999.90;999.90;;;;;;;13.23;100.00;-18260.63;4941632;29;20297;-37
2021/04/30 10:06:32;;;;;;;1999.90;999.90;;;;;;;12.45;100.00;-18240.22;4941005;29;20210;-33
2021/04/30 10:09:25;;;;;;;1999.90;999.90;;;;;;;12.58;100.00;-18243.69;4940817;29;20210;-33
2021/04/30 10:12:19;;;;;;;1999.90;999.90;;;;;;;12.21;100.00;-18233.81;4941127;29;20201;-34
2021/04/30 10:15:07;;;;;;;1999.90;999.90;;;;;;;11.49;100.00;-18214.84;4940646;29;20315;-34
2021/04/30 10:17:55;;;;;;;1999.90;999.90;;;;;;;11.50;100.00;-18215.09;4940150;29;20697;-35
2021/04/30 10:20:48;;;;;;;1999.90;999.90;;;;;;;11.87;100.00;-18224.84;4939779;29;20208;-35
2021/04/30 10:23:37;;;;;;;1999.90;999.90;;;;;;;12.03;100.00;-18229.25;4939275;29;20205;-32
2021/04/30 10:26:26;;;;;;;1999.90;999.90;;;;;;;11.62;100.00;-18218.31;4940319;29;20607;-35
2021/04/30 10:29:23;;;;;;;1999.90;999.90;;;;;;;12.14;100.00;-18232.06;4940090;29;20295;-33
2021/04/30 10:32:11;;;;;;;1999.90;999.90;;;;;;;12.19;100.00;-18233.28;4940674;29;20683;-32
2021/04/30 10:34:59;;;;;;;1999.90;999.90;;;;;;;11.89;100.00;-18225.53;4939996;29;20232;-35
2021/04/30 10:37:47;;;;;;;1999.90;999.90;;;;;;;12.42;100.00;-18239.53;4940531;29;20205;-34
2021/04/30 10:40:33;;;;;;;1999.90;999.90;;;;;;;11.71;100.00;-18220.72;4940418;29;20201;-32
2021/04/30 10:43:30;;;;;;;1999.90;999.90;;;;;;;11.95;100.00;-18227.00;4939659;29;20639;-33
2021/04/30 10:46:22;;;;;;;1999.90;999.90;;;;;;;12.03;100.00;-18229.25;4940403;29;20201;-33
2021/04/30 10:49:16;;;;;;;1999.90;999.90;;;;;;;11.80;100.00;-18223.13;4940122;29;20204;-32
2021/04/30 10:52:18;;;;;;;1999.90;999.90;;;;;;;11.74;100.00;-18221.66;4940087;29;20208;-35
2021/04/30 10:55:09;;;;;;;1999.90;999.90;;;;;;;11.31;100.00;-18210.16;4939972;29;20566;-33
2021/04/30 10:57:57;;;;;;;1999.90;999.90;;;;;;;11.09;100.00;-18204.41;4940119;29;20603;-36
2021/04/30 11:00:47;;;;;;;1999.90;999.90;;;;;;;11.79;100.00;-18222.84;4940180;29;20279;-34
2021/04/30 11:03:33;;;;;;;1999.90;999.90;;;;;;;11.74;100.00;-18221.66;4940439;29;20229;-37
2021/04/30 11:06:20;;;;;;;1999.90;999.90;;;;;;;12.23;100.00;-18234.34;4939854;29;20559;-34
2021/04/30 11:09:11;;;;;;;1999.90;999.90;;;;;;;11.95;100.00;-18227.13;4945144;29;20212;-34
2021/04/30 11:12:01;;;;;;;1999.90;999.90;;;;;;;11.90;100.00;-18225.78;4944821;29;20204;-35
2021/04/30 11:14:57;;;;;;;1999.90;999.90;;;;;;;12.15;100.00;-18232.34;4945503;29;20643;-33
2021/04/30 11:17:55;;;;;;;1999.90;999.90;;;;;;;11.85;100.00;-18224.47;4953395;29;20606;-33
2021/04/30 11:20:43;;;;;;;1999.90;999.90;;;;;;;12.54;100.00;-18242.63;4950643;29;20208;-34
2021/04/30 11:23:52;;;;;;;1999.90;999.90;;;;;;;11.10;100.00;-18204.69;4939604;29;20201;-34
2021/04/30 11:26:38;;;;;;;1999.90;999.90;;;;;;;11.13;100.00;-18205.34;4944462;29;20294;-34
2021/04/30 11:29:31;;;;;;;1999.90;999.90;;;;;;;11.48;100.00;-18214.69;4948527;29;20271;-32
2021/04/30 11:32:23;;;;;;;1999.90;999.90;;;;;;;10.79;100.00;-18196.41;4954064;29;20271;-34
2021/04/30 11:35:13;;;;;;;1999.90;999.90;;;;;;;10.61;100.00;-18191.84;4953934;29;20224;-33
2021/04/30 11:38:01;;;;;;;1999.90;999.90;;;;;;;10.90;100.00;-18199.34;4954428;29;20504;-36
2021/04/30 11:40:58;;;;;;;1999.90;999.90;;;;;;;11.37;100.00;-18211.75;4957205;28;20311;-37
2021/04/30 11:43:49;;;;;;;1999.90;999.90;;;;;;;11.12;100.00;-18205.22;4953715;29;20325;-35
2021/04/30 11:46:40;;;;;;;1999.90;999.90;;;;;;;10.92;100.00;-18199.88;4943064;29;20200;-32
2021/04/30 11:49:26;;;;;;;1999.90;999.90;;;;;;;11.22;100.00;-18207.75;4945471;29;20232;-34
2021/04/30 11:52:13;;;;;;;1999.90;999.90;;;;;;;11.02;100.00;-18202.53;4946168;29;20475;-35
2021/04/30 11:55:04;;;;;;;1999.90;999.90;;;;;;;10.97;100.00;-18201.22;4938802;29;20307;-35
2021/04/30 11:58:01;;;;;;;1999.90;999.90;;;;;;;11.53;100.00;-18215.91;4939097;29;20208;-36
2021/04/30 12:00:51;;;;;;;1999.90;999.90;;;;;;;11.48;100.00;-18214.56;4939417;29;20208;-37
2021/04/30 12:03:43;;;;;;;1999.90;999.90;;;;;;;11.27;100.00;-18209.22;4952922;29;20593;-36
2021/04/30 12:09:24;;;;;;;1999.90;999.90;;;;;;;10.85;100.00;-18198.00;5012866;23;20492;-29
2021/04/30 12:12:14;;;;;;;1999.90;999.90;;;;;;;10.81;100.00;-18197.06;4939713;29;20276;-29
2021/04/30 12:15:06;;;;;;;1999.90;999.90;;;;;;;11.20;100.00;-18207.34;4940262;29;20371;-29
2021/04/30 12:17:53;;;;;;;1999.90;999.90;;;;;;;11.07;100.00;-18203.88;4939626;29;20548;-29
2021/04/30 12:20:42;;;;;;;1999.90;999.90;;;;;;;11.67;100.00;-18219.78;4939518;29;20681;-29